Roseland, Illinois
Current Conditions -  °F | °C
As of 1:53 PM on Wednesday 17 Dec 2014 (Local Time) from KMDW Reporting Station
Overcast Overcast  
Wind Chill: 17°   Ceiling: 2300
Heat Index: 28°   Visibility: 10mi
Dew Point: 18°   Wind: 13mph
Humidity: 66%   Direction: 310°NW
Pressure: 30.21"   Gusts: NA
Location:  41.6907°N, 87.6161°W
Report Text: KMDW 171953Z 31011KT 10SM OVC023 M02/M08 A3021 RMK AO2 SLP244 T10221078
Loading
Personal Weather Stations






























Interactive Weather Map New forecast layout! Learn more

10-Day Weather Forecast

Advertisements
Track Severe Weather on mobile